Time;durP1;ratioP1;P1;durP2;ratioP2;P2;SDS_P1;SDS_P2;PMS_P1;PMS_P2;Temp;Humidity;BMP_temperature;BMP_pressure;BME280_temperature;BME280_humidity;BME280_pressure;Samples;Min_cycle;Max_cycle;Signal;HPM_P1;HPM_P2
2023/04/15 00:00:28;;;;;;;5.63;4.50;;;7.80;99.90;;;;;;4901624;29;20391;-74
2023/04/15 00:02:54;;;;;;;5.60;4.38;;;7.80;99.90;;;;;;4901846;29;20119;-74
2023/04/15 00:05:20;;;;;;;5.72;5.10;;;7.80;99.90;;;;;;4902632;29;20103;-74
2023/04/15 00:07:46;;;;;;;7.10;5.63;;;7.80;99.90;;;;;;4900842;29;20052;-74
2023/04/15 00:10:13;;;;;;;6.97;5.68;;;7.80;99.90;;;;;;4886728;29;20064;-74
2023/04/15 00:12:39;;;;;;;7.43;6.53;;;7.80;99.90;;;;;;4889926;29;20043;-75
2023/04/15 00:15:05;;;;;;;7.43;6.63;;;7.70;99.90;;;;;;4903934;29;20036;-74
2023/04/15 00:17:31;;;;;;;8.68;6.78;;;7.60;99.90;;;;;;4903160;29;20087;-74
2023/04/15 00:19:58;;;;;;;7.70;6.13;;;7.50;99.90;;;;;;4904472;29;20032;-75
2023/04/15 00:22:24;;;;;;;7.47;6.22;;;7.50;99.90;;;;;;4903760;29;21133;-75
2023/04/15 00:24:51;;;;;;;7.15;6.43;;;7.30;99.90;;;;;;4901988;29;20032;-74
2023/04/15 00:27:17;;;;;;;9.23;6.07;;;7.20;99.90;;;;;;4896214;29;20488;-74
2023/04/15 00:29:42;;;;;;;7.40;6.10;;;7.00;99.90;;;;;;4903531;29;20075;-74
2023/04/15 00:32:08;;;;;;;7.90;5.65;;;6.90;99.90;;;;;;4903175;29;20117;-74
2023/04/15 00:34:33;;;;;;;8.60;5.95;;;6.90;99.90;;;;;;4891851;29;20032;-74
2023/04/15 00:36:59;;;;;;;7.70;6.07;;;6.70;99.90;;;;;;4902166;29;20091;-74
2023/04/15 00:39:25;;;;;;;7.07;5.93;;;6.60;99.90;;;;;;4904042;29;20039;-74
2023/04/15 00:41:51;;;;;;;7.45;6.13;;;6.60;99.90;;;;;;4903709;29;20028;-74
2023/04/15 00:44:17;;;;;;;7.45;6.47;;;6.50;99.90;;;;;;4899949;29;20357;-74
2023/04/15 00:46:44;;;;;;;11.07;7.07;;;6.40;99.90;;;;;;4894878;29;20113;-74
2023/04/15 00:49:10;;;;;;;8.45;5.95;;;6.30;99.90;;;;;;4903003;29;20040;-74
2023/04/15 00:51:35;;;;;;;11.82;7.38;;;6.30;99.90;;;;;;4903146;29;20618;-74
2023/04/15 00:54:03;;;;;;;10.65;7.00;;;6.50;99.90;;;;;;4904239;29;20036;-74
2023/04/15 00:56:29;;;;;;;9.23;6.70;;;6.60;99.90;;;;;;4903406;29;20032;-74
2023/04/15 00:58:56;;;;;;;10.00;7.20;;;6.70;99.90;;;;;;4903563;29;20476;-74
2023/04/15 01:01:24;;;;;;;10.65;7.60;;;6.90;99.90;;;;;;4896490;29;20039;-74
2023/04/15 01:03:50;;;;;;;9.68;7.15;;;7.00;99.90;;;;;;4901469;29;20063;-74
2023/04/15 01:06:16;;;;;;;10.60;6.43;;;7.10;99.90;;;;;;4900910;29;20051;-74
2023/04/15 01:08:42;;;;;;;9.93;6.78;;;7.20;99.90;;;;;;4899122;29;20058;-74
2023/04/15 01:11:09;;;;;;;8.88;6.72;;;7.20;99.90;;;;;;4899011;29;20047;-75
2023/04/15 01:13:35;;;;;;;10.52;7.13;;;7.30;99.90;;;;;;4903506;29;20676;-73
2023/04/15 01:16:01;;;;;;;10.13;6.75;;;7.40;99.90;;;;;;4903834;29;20115;-74
2023/04/15 01:18:28;;;;;;;10.43;7.35;;;7.40;99.90;;;;;;4902627;29;20042;-74
2023/04/15 01:20:54;;;;;;;11.50;7.40;;;7.50;99.90;;;;;;4904024;29;20119;-73
2023/04/15 01:23:22;;;;;;;11.48;7.95;;;7.50;99.90;;;;;;4902372;29;20081;-74
2023/04/15 01:25:48;;;;;;;12.43;7.82;;;7.60;99.90;;;;;;4901327;29;20087;-74
2023/04/15 01:28:15;;;;;;;13.10;8.55;;;7.60;99.90;;;;;;4902324;29;20047;-73
2023/04/15 01:30:40;;;;;;;14.02;8.98;;;7.60;99.90;;;;;;4899470;29;20028;-74
2023/04/15 01:33:06;;;;;;;12.85;9.25;;;7.60;99.90;;;;;;4894258;29;20055;-73
2023/04/15 01:35:32;;;;;;;12.77;8.23;;;7.60;99.90;;;;;;4903417;29;20049;-74
2023/04/15 01:38:10;;;;;;;14.02;9.05;;;7.50;99.90;;;;;;4903383;29;20059;-73
2023/04/15 01:40:35;;;;;;;13.60;8.80;;;7.50;99.90;;;;;;4905303;29;20040;-74
2023/04/15 01:43:02;;;;;;;11.77;8.10;;;7.60;99.90;;;;;;4906539;29;20047;-74
2023/04/15 01:45:28;;;;;;;11.90;7.68;;;7.60;99.90;;;;;;4905909;29;20095;-74
2023/04/15 01:47:54;;;;;;;10.60;7.50;;;7.60;99.90;;;;;;4906602;29;20048;-74
2023/04/15 01:50:20;;;;;;;12.30;8.13;;;7.60;99.90;;;;;;4890964;29;20020;-74
2023/04/15 01:52:46;;;;;;;11.50;7.47;;;7.60;99.90;;;;;;4906056;29;20163;-74
2023/04/15 01:55:12;;;;;;;10.05;7.20;;;7.60;99.90;;;;;;4905288;29;20028;-73
2023/04/15 01:57:38;;;;;;;11.52;8.10;;;7.60;99.90;;;;;;4902971;29;20038;-74
2023/04/15 02:00:06;;;;;;;13.15;7.75;;;7.60;99.90;;;;;;4896061;29;20055;-74
2023/04/15 02:02:32;;;;;;;9.50;7.07;;;7.50;99.90;;;;;;4900671;29;20503;-74
2023/04/15 02:04:58;;;;;;;11.52;7.90;;;7.60;99.90;;;;;;4905145;29;20097;-74
2023/04/15 02:07:24;;;;;;;9.95;7.50;;;7.60;99.90;;;;;;4903665;29;20076;-74
2023/04/15 02:09:49;;;;;;;13.60;7.80;;;7.60;99.90;;;;;;4903510;29;20075;-74
2023/04/15 02:12:15;;;;;;;9.98;7.38;;;7.60;99.90;;;;;;4903384;29;20036;-73
2023/04/15 02:14:41;;;;;;;9.50;7.13;;;7.60;99.90;;;;;;4907389;29;20054;-74
2023/04/15 02:17:07;;;;;;;11.23;7.50;;;7.70;99.90;;;;;;4906185;29;20409;-73
2023/04/15 02:19:36;;;;;;;11.68;7.65;;;7.70;99.90;;;;;;4903501;29;20572;-74
2023/04/15 02:22:01;;;;;;;10.07;7.60;;;7.70;99.90;;;;;;4903483;29;20040;-74
2023/04/15 02:24:28;;;;;;;10.43;7.57;;;7.70;99.90;;;;;;4903677;29;20027;-74
2023/04/15 02:26:54;;;;;;;9.40;7.32;;;7.70;99.90;;;;;;4887330;29;20086;-74
2023/04/15 02:29:21;;;;;;;10.07;7.78;;;7.70;99.90;;;;;;4894214;29;20056;-74
2023/04/15 02:31:47;;;;;;;9.48;7.13;;;7.70;99.90;;;;;;4904806;29;20028;-74
2023/04/15 02:34:13;;;;;;;12.38;6.95;;;7.70;99.90;;;;;;4905625;29;20091;-74
2023/04/15 02:36:39;;;;;;;9.10;6.40;;;7.70;99.90;;;;;;4902635;29;20035;-74
2023/04/15 02:39:05;;;;;;;8.25;6.30;;;7.70;99.90;;;;;;4887248;29;20469;-73
2023/04/15 02:41:31;;;;;;;8.27;5.82;;;7.60;99.90;;;;;;4895832;29;20094;-74
2023/04/15 02:43:56;;;;;;;7.85;5.18;;;7.60;99.90;;;;;;4900275;29;20028;-74
2023/04/15 02:46:22;;;;;;;9.00;5.57;;;7.60;99.90;;;;;;4904913;29;20040;-74
2023/04/15 02:48:48;;;;;;;9.48;5.65;;;7.60;99.90;;;;;;4904967;29;20115;-74
2023/04/15 02:51:21;;;;;;;6.25;4.80;;;7.60;99.90;;;;;;4907134;29;20087;-75
2023/04/15 02:53:48;;;;;;;8.25;5.28;;;7.50;99.90;;;;;;4904729;29;20388;-74
2023/04/15 02:56:14;;;;;;;6.60;5.03;;;7.60;99.90;;;;;;4905839;29;20302;-73
2023/04/15 02:58:41;;;;;;;8.73;4.63;;;7.60;99.90;;;;;;4901499;29;20036;-75
2023/04/15 03:01:07;;;;;;;6.28;4.65;;;7.60;99.90;;;;;;4890046;29;20095;-74
2023/04/15 03:03:33;;;;;;;4.97;3.88;;;7.60;99.90;;;;;;4889718;29;20024;-74
2023/04/15 03:05:59;;;;;;;4.72;3.78;;;7.60;99.90;;;;;;4903119;29;20851;-74
2023/04/15 03:08:25;;;;;;;6.13;3.25;;;7.60;99.90;;;;;;4904945;29;20048;-74
2023/04/15 03:10:51;;;;;;;3.58;2.83;;;7.50;99.90;;;;;;4904015;29;20469;-74
2023/04/15 03:13:17;;;;;;;4.00;2.85;;;7.50;99.90;;;;;;4901107;29;20556;-74
2023/04/15 03:15:45;;;;;;;4.30;3.22;;;7.40;99.90;;;;;;4890353;29;20130;-74
2023/04/15 03:18:11;;;;;;;5.13;3.35;;;7.30;99.90;;;;;;4902953;29;20032;-74
2023/04/15 03:20:37;;;;;;;3.70;2.97;;;7.20;99.90;;;;;;4906076;29;20067;-74
2023/04/15 03:23:02;;;;;;;4.05;3.35;;;7.10;99.90;;;;;;4903346;29;20039;-73
2023/04/15 03:25:28;;;;;;;4.35;3.40;;;7.10;99.90;;;;;;4901494;29;20040;-73
2023/04/15 03:27:53;;;;;;;4.03;3.60;;;7.10;99.90;;;;;;4885778;29;20051;-73
2023/04/15 03:30:19;;;;;;;5.63;3.92;;;7.10;99.90;;;;;;4904461;29;20055;-73
2023/04/15 03:32:45;;;;;;;4.53;3.97;;;7.20;99.90;;;;;;4903269;29;20032;-74
2023/04/15 03:35:10;;;;;;;7.75;4.65;;;7.30;99.90;;;;;;4905393;29;20111;-73
2023/04/15 03:37:36;;;;;;;4.47;3.42;;;7.30;99.90;;;;;;4900037;29;20144;-73
2023/04/15 03:40:02;;;;;;;6.40;3.85;;;7.30;99.90;;;;;;4888568;29;20104;-73
2023/04/15 03:42:27;;;;;;;4.35;3.22;;;7.20;99.90;;;;;;4903993;29;20032;-74
2023/04/15 03:44:53;;;;;;;3.65;3.20;;;7.10;99.90;;;;;;4901452;29;20047;-74
2023/04/15 03:47:18;;;;;;;3.10;2.80;;;7.00;99.90;;;;;;4884154;29;20071;-74
2023/04/15 03:49:44;;;;;;;5.25;3.60;;;7.00;99.90;;;;;;4904630;29;20060;-74
2023/04/15 03:52:10;;;;;;;5.43;3.22;;;6.80;99.90;;;;;;4904224;29;20036;-74
2023/04/15 03:54:35;;;;;;;7.35;3.38;;;6.70;99.90;;;;;;4905549;29;20115;-73
2023/04/15 03:57:01;;;;;;;4.70;3.60;;;6.70;99.90;;;;;;4904947;29;20036;-74
2023/04/15 03:59:26;;;;;;;4.57;3.65;;;6.60;99.90;;;;;;4905440;29;20028;-73
2023/04/15 04:01:52;;;;;;;5.88;3.75;;;6.60;99.90;;;;;;4900807;29;20594;-74
2023/04/15 04:04:18;;;;;;;5.63;3.40;;;6.40;99.90;;;;;;4900575;29;20048;-74
2023/04/15 04:06:43;;;;;;;6.18;3.55;;;6.30;99.90;;;;;;4887227;29;20140;-74
2023/04/15 04:09:09;;;;;;;3.97;3.35;;;6.30;99.90;;;;;;4900584;29;20044;-73
2023/04/15 04:11:36;;;;;;;4.85;3.50;;;6.30;99.90;;;;;;4904156;29;20110;-73
2023/04/15 04:14:02;;;;;;;3.92;3.33;;;6.30;99.90;;;;;;4903085;29;20080;-74
2023/04/15 04:16:27;;;;;;;4.55;3.60;;;6.40;99.90;;;;;;4903322;29;20024;-73
2023/04/15 04:18:53;;;;;;;5.28;3.90;;;6.50;99.90;;;;;;4899028;29;20090;-75
2023/04/15 04:21:19;;;;;;;5.15;3.63;;;6.60;99.90;;;;;;4900910;29;20078;-74
2023/04/15 04:23:45;;;;;;;4.38;3.15;;;6.70;99.90;;;;;;4902393;29;20792;-74
2023/04/15 04:26:11;;;;;;;3.85;2.90;;;6.70;99.90;;;;;;4898862;29;20139;-74
2023/04/15 04:28:38;;;;;;;4.05;3.10;;;6.80;99.90;;;;;;4886239;29;20428;-74
2023/04/15 04:31:04;;;;;;;5.38;2.92;;;6.80;99.90;;;;;;4899357;29;20122;-73
2023/04/15 04:33:29;;;;;;;4.68;2.88;;;6.80;99.90;;;;;;4894138;29;20479;-74
2023/04/15 04:35:55;;;;;;;5.25;3.35;;;6.90;99.90;;;;;;4902251;29;20027;-74
2023/04/15 04:38:21;;;;;;;3.95;3.38;;;6.90;99.90;;;;;;4899340;29;20032;-73
2023/04/15 04:40:47;;;;;;;8.38;3.53;;;6.90;99.90;;;;;;4899477;29;20400;-74
2023/04/15 04:43:13;;;;;;;3.55;3.00;;;6.90;99.90;;;;;;4901205;29;20064;-73
2023/04/15 04:45:39;;;;;;;4.10;3.00;;;6.90;99.90;;;;;;4903455;29;20052;-74
2023/04/15 04:48:05;;;;;;;3.65;2.80;;;6.90;99.90;;;;;;4902776;29;20550;-74
2023/04/15 04:50:31;;;;;;;4.43;3.03;;;6.90;99.90;;;;;;4898720;29;20115;-74
2023/04/15 04:52:57;;;;;;;5.47;3.10;;;6.90;99.90;;;;;;4898058;29;20036;-73
2023/04/15 04:55:23;;;;;;;4.20;3.10;;;7.00;99.90;;;;;;4902616;29;20087;-74
2023/04/15 04:57:48;;;;;;;4.10;3.17;;;7.00;99.90;;;;;;4898723;29;20043;-73
2023/04/15 05:00:14;;;;;;;4.60;3.40;;;7.00;99.90;;;;;;4887912;29;20035;-74
2023/04/15 05:02:42;;;;;;;3.67;3.00;;;7.00;99.90;;;;;;4897246;29;20029;-74
2023/04/15 05:05:09;;;;;;;3.88;3.15;;;7.10;99.90;;;;;;4882949;29;20154;-73
2023/04/15 05:07:34;;;;;;;3.25;2.75;;;7.10;99.90;;;;;;4901513;29;20135;-74
2023/04/15 05:10:00;;;;;;;6.88;3.70;;;7.10;99.90;;;;;;4905846;29;20111;-74
2023/04/15 05:12:26;;;;;;;4.40;3.55;;;7.00;99.90;;;;;;4906138;29;20100;-74
2023/04/15 05:14:51;;;;;;;4.65;3.20;;;7.10;99.90;;;;;;4903515;29;20033;-74
2023/04/15 05:17:17;;;;;;;5.50;3.90;;;7.10;99.90;;;;;;4903014;29;20036;-74
2023/04/15 05:19:42;;;;;;;4.00;3.50;;;7.10;99.90;;;;;;4900822;29;20037;-74
2023/04/15 05:22:08;;;;;;;4.15;3.50;;;7.20;99.90;;;;;;4897581;29;20036;-74
2023/04/15 05:24:34;;;;;;;5.20;4.10;;;7.20;99.90;;;;;;4907249;29;20051;-74
2023/04/15 05:27:00;;;;;;;5.45;4.10;;;7.20;99.90;;;;;;4903799;29;20091;-74
2023/04/15 05:29:26;;;;;;;5.22;4.13;;;7.20;99.90;;;;;;4904535;29;20040;-73
2023/04/15 05:31:51;;;;;;;5.82;3.67;;;7.20;99.90;;;;;;4904276;29;20039;-73
2023/04/15 05:34:17;;;;;;;4.53;3.83;;;7.30;99.90;;;;;;4905178;29;20508;-73
2023/04/15 05:36:43;;;;;;;7.43;4.15;;;7.30;99.90;;;;;;4905417;29;20480;-73
2023/04/15 05:39:08;;;;;;;6.30;4.13;;;7.30;99.90;;;;;;4901980;29;20579;-74
2023/04/15 05:41:34;;;;;;;5.10;4.18;;;7.30;99.90;;;;;;4896597;29;20051;-73
2023/04/15 05:44:00;;;;;;;5.07;4.07;;;7.40;99.90;;;;;;4906282;29;20540;-73
2023/04/15 05:46:26;;;;;;;5.35;4.40;;;7.40;99.90;;;;;;4907951;29;20923;-74
2023/04/15 05:48:51;;;;;;;7.72;4.75;;;7.40;99.90;;;;;;4903991;29;20047;-73
2023/04/15 05:51:17;;;;;;;5.85;4.10;;;7.50;99.90;;;;;;4901161;29;20908;-74
2023/04/15 05:53:43;;;;;;;6.43;4.30;;;7.50;99.90;;;;;;4885155;29;20032;-74
2023/04/15 05:56:08;;;;;;;6.18;4.75;;;7.60;99.90;;;;;;4888920;29;20110;-73
2023/04/15 05:58:34;;;;;;;5.18;4.10;;;7.60;99.90;;;;;;4905309;29;20058;-74
2023/04/15 06:01:00;;;;;;;5.03;4.30;;;7.60;99.90;;;;;;4906182;29;20031;-74
2023/04/15 06:03:26;;;;;;;5.05;4.15;;;7.60;99.90;;;;;;4903065;29;20060;-74
2023/04/15 06:05:51;;;;;;;4.47;3.65;;;7.60;99.90;;;;;;4892171;29;20036;-73
2023/04/15 06:08:17;;;;;;;6.90;4.60;;;7.70;99.90;;;;;;4907348;29;20071;-73
2023/04/15 06:10:43;;;;;;;4.88;3.58;;;7.70;99.90;;;;;;4906955;29;20028;-73
2023/04/15 06:13:08;;;;;;;4.78;3.90;;;7.70;99.90;;;;;;4905397;29;20051;-74
2023/04/15 06:15:34;;;;;;;5.57;3.88;;;7.80;99.90;;;;;;4903189;29;20040;-73
2023/04/15 06:18:00;;;;;;;3.63;3.33;;;7.80;99.90;;;;;;4900698;29;20059;-74
2023/04/15 06:20:25;;;;;;;4.68;3.97;;;7.90;99.90;;;;;;4902692;29;20036;-74
2023/04/15 06:22:51;;;;;;;4.25;3.40;;;8.00;99.90;;;;;;4899946;29;20592;-74
2023/04/15 06:25:17;;;;;;;9.10;6.22;;;8.10;99.90;;;;;;4899075;29;20079;-74
2023/04/15 06:27:42;;;;;;;5.63;4.15;;;8.10;99.90;;;;;;4900588;29;20123;-74
2023/04/15 06:30:08;;;;;;;3.90;3.20;;;8.10;99.90;;;;;;4888167;29;20112;-73
2023/04/15 06:32:34;;;;;;;4.60;3.38;;;8.20;99.90;;;;;;4901961;29;20180;-74
2023/04/15 06:35:00;;;;;;;4.07;3.20;;;8.40;99.90;;;;;;4905009;29;20111;-74
2023/04/15 06:37:25;;;;;;;3.95;3.25;;;8.50;99.90;;;;;;4902179;29;20044;-74
2023/04/15 06:39:51;;;;;;;3.58;3.10;;;8.50;99.90;;;;;;4904834;29;20435;-73
2023/04/15 06:42:17;;;;;;;60.50;29.58;;;8.60;99.90;;;;;;4904862;29;20087;-74
2023/04/15 06:44:42;;;;;;;8.90;5.68;;;8.80;99.90;;;;;;4906040;29;20654;-74
2023/04/15 06:47:08;;;;;;;4.20;3.60;;;9.00;99.90;;;;;;4898016;29;20051;-73
2023/04/15 06:49:34;;;;;;;4.47;4.07;;;9.20;99.90;;;;;;4890436;29;20040;-73
2023/04/15 06:52:00;;;;;;;40.53;15.25;;;9.40;99.90;;;;;;4897511;29;20025;-74
2023/04/15 06:54:26;;;;;;;5.72;3.08;;;9.50;99.90;;;;;;4886868;29;20032;-74
2023/04/15 06:56:52;;;;;;;3.35;2.80;;;9.40;99.90;;;;;;4896234;29;20039;-73
2023/04/15 06:59:17;;;;;;;4.00;2.92;;;9.40;99.90;;;;;;4900109;29;20107;-73
2023/04/15 07:01:43;;;;;;;3.97;2.90;;;9.30;99.90;;;;;;4904853;29;20130;-73
2023/04/15 07:04:09;;;;;;;2.92;2.55;;;9.40;99.90;;;;;;4901706;29;20099;-74
2023/04/15 07:06:35;;;;;;;4.45;2.85;;;9.50;99.90;;;;;;4897067;29;20059;-74
2023/04/15 07:09:02;;;;;;;5.20;2.50;;;9.60;99.90;;;;;;4903909;29;20040;-73
2023/04/15 07:11:28;;;;;;;3.28;2.75;;;9.70;99.90;;;;;;4903208;29;20055;-74
2023/04/15 07:13:53;;;;;;;5.10;2.65;;;9.70;99.90;;;;;;4901645;29;20089;-73
2023/04/15 07:16:20;;;;;;;4.50;2.58;;;9.70;99.90;;;;;;4904079;29;20572;-73
2023/04/15 07:18:45;;;;;;;4.20;3.55;;;9.70;99.90;;;;;;4904926;29;20115;-73
2023/04/15 07:21:11;;;;;;;2.97;2.67;;;10.00;99.90;;;;;;4904476;29;20123;-74
2023/04/15 07:23:37;;;;;;;5.03;2.85;;;10.10;99.90;;;;;;4899518;29;20032;-74
2023/04/15 07:26:03;;;;;;;3.40;3.10;;;10.10;99.90;;;;;;4904590;29;20449;-74
2023/04/15 07:28:29;;;;;;;4.07;3.40;;;10.00;99.90;;;;;;4900549;29;20148;-74
2023/04/15 07:30:56;;;;;;;3.83;3.53;;;9.80;99.90;;;;;;4900070;29;20036;-74
2023/04/15 07:33:22;;;;;;;3.38;3.08;;;9.70;99.90;;;;;;4904524;29;20032;-73
2023/04/15 07:35:48;;;;;;;4.07;3.65;;;9.60;99.90;;;;;;4905111;29;20040;-74
2023/04/15 07:38:14;;;;;;;4.65;3.78;;;9.50;99.90;;;;;;4904097;29;20044;-74
2023/04/15 07:40:41;;;;;;;4.70;4.00;;;9.60;99.90;;;;;;4902220;29;20025;-74
2023/04/15 07:43:07;;;;;;;4.72;4.28;;;9.50;99.90;;;;;;4902908;29;20516;-74
2023/04/15 07:45:34;;;;;;;4.47;3.83;;;9.40;99.90;;;;;;4901536;29;20753;-73
2023/04/15 07:48:00;;;;;;;4.50;4.10;;;9.30;99.90;;;;;;4898299;29;20059;-74
2023/04/15 07:50:26;;;;;;;4.13;3.65;;;9.50;99.90;;;;;;4903190;29;20036;-73
2023/04/15 07:52:52;;;;;;;4.25;3.42;;;9.60;99.90;;;;;;4902187;29;20032;-73
2023/04/15 07:55:20;;;;;;;4.05;3.58;;;9.90;99.90;;;;;;4902765;29;20036;-74
2023/04/15 07:57:46;;;;;;;4.15;3.35;;;10.10;99.90;;;;;;4897602;29;20129;-74
2023/04/15 08:00:12;;;;;;;3.50;3.08;;;10.30;99.90;;;;;;4898335;29;20036;-74
2023/04/15 08:02:38;;;;;;;3.67;3.30;;;10.40;99.90;;;;;;4901958;29;20047;-73
2023/04/15 08:05:04;;;;;;;3.60;2.97;;;10.10;99.90;;;;;;4899021;29;20037;-73
2023/04/15 08:07:30;;;;;;;3.53;2.70;;;10.00;99.90;;;;;;4905666;29;20123;-74
2023/04/15 08:09:56;;;;;;;3.13;2.78;;;10.00;99.90;;;;;;4904488;29;20032;-73
2023/04/15 08:12:22;;;;;;;2.90;2.60;;;10.10;99.90;;;;;;4896472;29;20500;-73
2023/04/15 08:14:51;;;;;;;4.60;2.40;;;10.10;99.90;;;;;;4901144;29;20036;-74
2023/04/15 08:17:17;;;;;;;3.22;2.63;;;10.20;99.90;;;;;;4892636;29;20501;-74
2023/04/15 08:19:43;;;;;;;2.75;2.55;;;10.20;99.90;;;;;;4891411;29;20028;-74
2023/04/15 08:22:10;;;;;;;6.97;4.45;;;10.20;99.90;;;;;;4892012;29;20043;-73
2023/04/15 08:24:36;;;;;;;4.22;2.35;;;10.40;99.90;;;;;;4892904;29;20035;-74
2023/04/15 08:27:03;;;;;;;3.25;2.60;;;10.50;99.90;;;;;;4891030;29;20032;-74
2023/04/15 08:29:29;;;;;;;3.05;2.40;;;10.90;99.90;;;;;;4891063;29;20047;-73
2023/04/15 08:31:54;;;;;;;2.35;2.08;;;11.20;99.90;;;;;;4898908;29;20078;-75
2023/04/15 08:34:20;;;;;;;2.15;2.00;;;11.10;99.90;;;;;;4894111;29;20035;-73
2023/04/15 08:36:46;;;;;;;5.45;3.50;;;11.20;99.90;;;;;;4903197;29;20039;-74
2023/04/15 08:39:11;;;;;;;3.72;2.33;;;11.30;99.90;;;;;;4897449;29;20028;-73
2023/04/15 08:41:55;;;;;;;2.45;1.60;;;11.90;99.90;;;;;;4892245;29;20037;-74
2023/04/15 08:44:23;;;;;;;2.13;1.92;;;12.80;99.90;;;;;;4900426;29;20035;-74
2023/04/15 08:46:50;;;;;;;1.83;1.60;;;13.30;99.90;;;;;;4896593;29;20042;-73
2023/04/15 08:49:18;;;;;;;13.38;7.70;;;13.80;99.90;;;;;;4898644;29;20453;-73
2023/04/15 08:51:44;;;;;;;1.70;1.60;;;13.80;96.20;;;;;;4885555;29;20028;-74
2023/04/15 08:54:10;;;;;;;2.67;1.70;;;13.80;99.40;;;;;;4879540;29;20061;-73
2023/04/15 08:56:37;;;;;;;2.92;1.90;;;13.60;98.90;;;;;;4883670;29;20043;-74
2023/04/15 08:59:04;;;;;;;2.05;1.70;;;13.60;99.20;;;;;;4892572;29;20036;-74
2023/04/15 09:01:31;;;;;;;2.13;1.90;;;13.40;98.50;;;;;;4891900;29;20688;-73
2023/04/15 09:03:57;;;;;;;1.60;1.50;;;13.20;99.70;;;;;;4889647;29;20036;-74
2023/04/15 09:06:24;;;;;;;2.50;1.90;;;13.40;99.90;;;;;;4898092;29;20044;-73
2023/04/15 09:08:50;;;;;;;3.28;2.00;;;13.10;99.90;;;;;;4897218;29;20156;-73
2023/04/15 09:11:17;;;;;;;1.85;1.75;;;13.00;99.40;;;;;;4897599;29;20147;-74
2023/04/15 09:13:42;;;;;;;2.70;1.80;;;12.90;99.60;;;;;;4890398;29;20032;-74
2023/04/15 09:16:08;;;;;;;1.65;1.40;;;13.20;99.90;;;;;;4890121;29;20033;-74
2023/04/15 09:18:35;;;;;;;4.10;1.70;;;14.00;99.90;;;;;;4893248;29;20495;-74
2023/04/15 09:21:07;;;;;;;1.50;1.40;;;14.80;98.30;;;;;;4899502;29;20025;-73
2023/04/15 09:23:34;;;;;;;3.03;1.95;;;15.60;96.40;;;;;;4903551;29;20067;-73
2023/04/15 09:26:03;;;;;;;2.78;1.65;;;17.00;89.50;;;;;;4903683;29;20453;-74
2023/04/15 09:28:29;;;;;;;1.65;1.35;;;19.00;64.60;;;;;;4901471;29;20111;-74
2023/04/15 09:30:59;;;;;;;2.63;1.45;;;19.90;54.50;;;;;;4898410;29;20034;-74
2023/04/15 09:33:27;;;;;;;1.48;1.38;;;19.20;55.40;;;;;;4890698;29;20032;-73
2023/04/15 09:36:02;;;;;;;1.58;1.30;;;18.90;58.40;;;;;;4892823;29;20608;-74
2023/04/15 09:38:28;;;;;;;3.42;1.95;;;18.40;61.50;;;;;;4893691;29;20095;-73
2023/04/15 09:40:54;;;;;;;1.77;1.38;;;19.30;56.00;;;;;;4900225;29;20040;-73
2023/04/15 09:43:21;;;;;;;2.00;1.17;;;18.90;52.40;;;;;;4900312;29;20056;-74
2023/04/15 09:45:51;;;;;;;1.50;1.17;;;19.80;55.60;;;;;;4900130;29;20028;-74
2023/04/15 09:48:22;;;;;;;2.03;1.30;;;19.80;53.50;;;;;;4901312;29;20217;-74
2023/04/15 09:50:49;;;;;;;1.83;0.93;;;21.20;49.20;;;;;;4901887;29;20484;-73
2023/04/15 09:53:20;;;;;;;2.13;1.30;;;22.10;46.50;;;;;;4903596;29;20047;-75
2023/04/15 09:55:48;;;;;;;4.05;1.60;;;23.80;43.20;;;;;;4902431;29;20092;-75
2023/04/15 09:58:22;;;;;;;3.60;1.60;;;24.70;41.00;;;;;;4897516;29;20095;-75
2023/04/15 10:00:49;;;;;;;3.17;1.48;;;25.40;38.50;;;;;;4896355;29;20512;-74
2023/04/15 10:03:35;;;;;;;9.38;3.83;;;23.60;42.10;;;;;;4894584;29;20496;-73
2023/04/15 10:06:02;;;;;;;1.95;1.20;;;23.90;44.50;;;;;;4894083;29;20479;-74
2023/04/15 10:08:33;;;;;;;1.77;0.93;;;25.10;41.90;;;;;;4894586;29;20047;-74
2023/04/15 10:11:02;;;;;;;2.22;1.15;;;26.80;39.30;;;;;;4894534;29;20028;-74
2023/04/15 10:13:32;;;;;;;1.70;1.50;;;27.10;36.30;;;;;;4904696;29;20038;-74
2023/04/15 10:16:01;;;;;;;1.70;1.13;;;26.40;34.40;;;;;;4906157;29;20024;-74
2023/04/15 10:18:31;;;;;;;2.88;1.50;;;24.60;37.50;;;;;;4901982;29;20305;-74
2023/04/15 10:20:59;;;;;;;3.00;1.60;;;23.10;37.70;;;;;;4900253;29;20039;-74
2023/04/15 10:23:26;;;;;;;3.17;1.52;;;22.20;43.00;;;;;;4898832;29;20109;-75
2023/04/15 10:25:56;;;;;;;2.75;1.60;;;20.40;44.40;;;;;;4902825;29;20041;-74
2023/04/15 10:28:21;;;;;;;3.17;1.83;;;19.40;48.50;;;;;;4900135;29;20040;-74
2023/04/15 10:30:48;;;;;;;3.13;1.85;;;18.60;52.60;;;;;;4901518;29;20526;-74
2023/04/15 10:33:17;;;;;;;3.33;2.10;;;17.60;55.10;;;;;;4903476;29;20110;-75
2023/04/15 10:35:43;;;;;;;2.97;2.00;;;16.80;59.60;;;;;;4897284;29;20039;-74
2023/04/15 10:38:41;;;;;;;4.10;1.88;;;16.50;67.60;;;;;;4911992;29;20126;-74
2023/04/15 10:41:14;;;;;;;3.72;2.15;;;16.70;66.00;;;;;;4899876;29;20032;-75
2023/04/15 10:43:47;;;;;;;3.25;1.90;;;16.60;65.70;;;;;;4898595;29;20025;-75
2023/04/15 10:46:13;;;;;;;3.72;2.20;;;17.00;69.00;;;;;;4897904;29;20150;-74
2023/04/15 10:48:50;;;;;;;4.88;2.05;;;17.40;62.70;;;;;;4900257;29;20036;-75
2023/04/15 10:51:15;;;;;;;4.60;1.90;;;19.60;61.60;;;;;;4901020;29;20047;-74
2023/04/15 10:53:41;;;;;;;3.28;1.40;;;21.20;47.10;;;;;;4900697;29;20067;-75
2023/04/15 10:56:08;;;;;;;3.60;1.40;;;24.10;43.40;;;;;;4892053;29;20075;-75
2023/04/15 10:58:42;;;;;;;5.85;1.80;;;26.10;37.70;;;;;;4902714;29;20203;-75
2023/04/15 11:01:07;;;;;;;2.83;1.52;;;28.10;35.40;;;;;;4904181;29;20102;-75
2023/04/15 11:03:37;;;;;;;3.35;1.55;;;26.20;35.00;;;;;;4895166;29;21721;-75
2023/04/15 11:06:05;;;;;;;2.43;1.63;;;26.10;37.70;;;;;;4890948;29;20036;-75
2023/04/15 11:08:58;;;;;;;3.80;1.73;;;26.70;35.80;;;;;;4894211;29;20302;-75
2023/04/15 11:12:03;;;;;;;2.95;1.27;;;27.30;32.00;;;;;;4881845;29;20503;-74
2023/04/15 11:14:29;;;;;;;4.80;1.83;;;28.90;31.30;;;;;;4894516;29;21658;-75
2023/04/15 11:16:54;;;;;;;3.78;1.55;;;29.30;30.40;;;;;;4899319;29;20035;-74
2023/04/15 11:19:20;;;;;;;4.07;1.60;;;30.00;31.50;;;;;;4893230;29;20082;-75
2023/04/15 11:21:46;;;;;;;5.05;1.90;;;30.10;29.70;;;;;;4902291;29;20056;-75
2023/04/15 11:24:25;;;;;;;4.90;1.83;;;28.30;32.70;;;;;;4904955;29;20519;-75
2023/04/15 11:26:57;;;;;;;3.17;1.70;;;25.90;35.20;;;;;;4903613;29;20031;-75
2023/04/15 11:29:33;;;;;;;4.15;1.45;;;25.30;37.60;;;;;;4896175;29;20060;-75
2023/04/15 11:32:08;;;;;;;3.92;1.77;;;25.10;39.90;;;;;;4898827;29;20563;-75
2023/04/15 11:34:34;;;;;;;6.97;2.05;;;24.40;38.30;;;;;;4900078;29;20048;-74
2023/04/15 11:37:04;;;;;;;4.93;1.92;;;23.40;42.20;;;;;;4888210;29;20060;-74
2023/04/15 11:39:29;;;;;;;4.20;1.70;;;23.10;41.30;;;;;;4902674;29;20031;-74
2023/04/15 11:41:55;;;;;;;3.75;1.70;;;23.20;42.80;;;;;;4902722;29;20036;-75
2023/04/15 11:44:20;;;;;;;2.65;1.75;;;22.40;42.60;;;;;;4902568;29;20847;-74
2023/04/15 11:46:46;;;;;;;6.57;1.60;;;21.90;43.10;;;;;;4900935;29;20044;-75
2023/04/15 11:49:25;;;;;;;4.32;2.00;;;21.70;45.20;;;;;;4900065;29;20400;-74
2023/04/15 11:51:51;;;;;;;4.47;2.13;;;20.80;45.80;;;;;;4895437;29;20040;-74
2023/04/15 11:54:20;;;;;;;4.05;1.80;;;20.50;47.90;;;;;;4908036;29;20491;-75
2023/04/15 11:56:53;;;;;;;4.38;1.70;;;20.20;48.00;;;;;;4892262;29;21975;-74
2023/04/15 11:59:19;;;;;;;4.13;1.98;;;20.30;48.10;;;;;;4894833;29;20036;-75
2023/04/15 12:01:46;;;;;;;5.35;1.50;;;20.30;48.90;;;;;;4895271;29;20035;-74
2023/04/15 12:04:17;;;;;;;5.82;1.90;;;20.80;49.80;;;;;;4894712;29;20393;-74
2023/04/15 12:06:44;;;;;;;3.13;1.75;;;20.40;48.00;;;;;;4895022;29;20056;-74
2023/04/15 12:09:16;;;;;;;5.80;1.95;;;19.70;47.80;;;;;;4892472;29;20055;-75
2023/04/15 12:11:43;;;;;;;3.47;1.90;;;19.60;48.40;;;;;;4893301;29;20029;-74
2023/04/15 12:14:24;;;;;;;4.03;2.17;;;19.60;47.50;;;;;;4894913;29;20043;-76
2023/04/15 12:16:55;;;;;;;2.33;2.03;;;19.80;51.50;;;;;;4894199;29;20098;-75
2023/04/15 12:19:28;;;;;;;4.35;1.90;;;20.30;47.00;;;;;;4893527;29;20024;-75
2023/04/15 12:21:59;;;;;;;3.67;2.20;;;20.60;54.20;;;;;;4892264;29;20032;-75
2023/04/15 12:24:25;;;;;;;5.20;2.10;;;19.60;51.20;;;;;;4891595;29;20024;-75
2023/04/15 12:26:57;;;;;;;3.60;1.75;;;20.30;50.30;;;;;;4891524;29;20036;-75
2023/04/15 12:29:27;;;;;;;4.32;2.03;;;20.30;50.30;;;;;;4895286;29;20040;-74
2023/04/15 12:32:08;;;;;;;4.22;1.92;;;19.90;47.80;;;;;;4901547;29;20036;-75
2023/04/15 12:34:35;;;;;;;3.43;1.90;;;20.20;48.90;;;;;;4890695;29;20028;-75
2023/04/15 12:37:03;;;;;;;4.18;2.00;;;20.90;50.10;;;;;;4893084;29;20489;-75
2023/04/15 12:39:33;;;;;;;5.30;1.88;;;21.70;49.10;;;;;;4902389;29;20111;-76
2023/04/15 12:41:59;;;;;;;3.97;2.13;;;22.30;44.60;;;;;;4898460;29;20032;-74
2023/04/15 12:44:24;;;;;;;5.82;1.98;;;20.80;47.00;;;;;;4888961;29;20063;-75
2023/04/15 12:46:52;;;;;;;5.00;2.42;;;20.00;49.00;;;;;;4891263;29;20032;-74
2023/04/15 12:49:19;;;;;;;5.53;1.73;;;19.20;50.50;;;;;;4887766;29;20176;-74
2023/04/15 12:51:47;;;;;;;4.68;2.28;;;18.80;52.60;;;;;;4887419;29;20033;-74